sensor_id;sensor_type;location;lat;lon;timestamp;temperature;humidity
16136;DHT22;8173;48.354;9.248;2022-12-29T00:01:33;3.60;99.90
16136;DHT22;8173;48.354;9.248;2022-12-29T00:04:00;3.50;99.90
16136;DHT22;8173;48.354;9.248;2022-12-29T00:06:27;3.50;99.90
16136;DHT22;8173;48.354;9.248;2022-12-29T00:08:54;3.40;99.90
16136;DHT22;8173;48.354;9.248;2022-12-29T00:11:22;3.40;99.90
16136;DHT22;8173;48.354;9.248;2022-12-29T00:13:49;3.40;99.90
16136;DHT22;8173;48.354;9.248;2022-12-29T00:16:37;3.40;99.90
16136;DHT22;8173;48.354;9.248;2022-12-29T00:19:05;3.40;99.90
16136;DHT22;8173;48.354;9.248;2022-12-29T00:21:31;3.50;99.90
16136;DHT22;8173;48.354;9.248;2022-12-29T00:24:17;3.50;99.90
16136;DHT22;8173;48.354;9.248;2022-12-29T00:27:12;3.50;99.90
16136;DHT22;8173;48.354;9.248;2022-12-29T00:29:57;3.90;99.90
16136;DHT22;8173;48.354;9.248;2022-12-29T00:32:42;3.90;99.90
16136;DHT22;8173;48.354;9.248;2022-12-29T00:35:29;4.00;99.90
16136;DHT22;8173;48.354;9.248;2022-12-29T00:37:59;4.00;99.90
16136;DHT22;8173;48.354;9.248;2022-12-29T00:40:45;4.00;99.90
16136;DHT22;8173;48.354;9.248;2022-12-29T00:43:29;4.00;99.90
16136;DHT22;8173;48.354;9.248;2022-12-29T00:46:13;4.00;99.90
16136;DHT22;8173;48.354;9.248;2022-12-29T00:48:41;4.00;99.90
16136;DHT22;8173;48.354;9.248;2022-12-29T00:51:25;4.00;99.90
16136;DHT22;8173;48.354;9.248;2022-12-29T00:53:52;4.20;99.90
16136;DHT22;8173;48.354;9.248;2022-12-29T00:56:19;4.00;99.90
16136;DHT22;8173;48.354;9.248;2022-12-29T00:58:45;4.00;99.90
16136;DHT22;8173;48.354;9.248;2022-12-29T01:01:12;4.10;99.90
16136;DHT22;8173;48.354;9.248;2022-12-29T01:03:40;4.10;99.90
16136;DHT22;8173;48.354;9.248;2022-12-29T01:06:08;4.20;99.90
16136;DHT22;8173;48.354;9.248;2022-12-29T01:08:36;4.20;99.90
16136;DHT22;8173;48.354;9.248;2022-12-29T01:11:04;4.30;99.90
16136;DHT22;8173;48.354;9.248;2022-12-29T01:13:30;4.30;99.90
16136;DHT22;8173;48.354;9.248;2022-12-29T01:15:57;4.30;99.90
16136;DHT22;8173;48.354;9.248;2022-12-29T01:18:25;4.30;99.90
16136;DHT22;8173;48.354;9.248;2022-12-29T01:20:59;4.30;99.90
16136;DHT22;8173;48.354;9.248;2022-12-29T01:23:26;4.30;99.90
16136;DHT22;8173;48.354;9.248;2022-12-29T01:25:53;4.30;99.90
16136;DHT22;8173;48.354;9.248;2022-12-29T01:28:20;4.20;99.90
16136;DHT22;8173;48.354;9.248;2022-12-29T01:30:47;4.30;99.90
16136;DHT22;8173;48.354;9.248;2022-12-29T01:33:14;4.30;99.90
16136;DHT22;8173;48.354;9.248;2022-12-29T01:35:41;4.20;99.90
16136;DHT22;8173;48.354;9.248;2022-12-29T01:38:09;4.00;99.90
16136;DHT22;8173;48.354;9.248;2022-12-29T01:40:43;4.00;99.90
16136;DHT22;8173;48.354;9.248;2022-12-29T01:43:13;3.90;99.90
16136;DHT22;8173;48.354;9.248;2022-12-29T01:45:44;3.90;99.90
16136;DHT22;8173;48.354;9.248;2022-12-29T01:48:13;3.80;99.90
16136;DHT22;8173;48.354;9.248;2022-12-29T01:50:45;3.80;99.90
16136;DHT22;8173;48.354;9.248;2022-12-29T01:53:17;3.80;99.90
16136;DHT22;8173;48.354;9.248;2022-12-29T01:55:48;3.70;99.90
16136;DHT22;8173;48.354;9.248;2022-12-29T01:58:18;3.70;99.90
16136;DHT22;8173;48.354;9.248;2022-12-29T02:00:45;3.70;99.90
16136;DHT22;8173;48.354;9.248;2022-12-29T02:03:12;3.70;99.90
16136;DHT22;8173;48.354;9.248;2022-12-29T02:05:43;3.70;99.90
16136;DHT22;8173;48.354;9.248;2022-12-29T02:08:14;3.60;99.90
16136;DHT22;8173;48.354;9.248;2022-12-29T02:10:42;3.60;99.90
16136;DHT22;8173;48.354;9.248;2022-12-29T02:13:09;3.60;99.90
16136;DHT22;8173;48.354;9.248;2022-12-29T02:15:45;3.60;99.90
16136;DHT22;8173;48.354;9.248;2022-12-29T02:18:24;3.60;99.90
16136;DHT22;8173;48.354;9.248;2022-12-29T02:21:20;3.60;99.90
16136;DHT22;8173;48.354;9.248;2022-12-29T02:24:15;3.60;99.90
16136;DHT22;8173;48.354;9.248;2022-12-29T02:26:55;3.60;99.90
16136;DHT22;8173;48.354;9.248;2022-12-29T02:29:41;3.60;99.90
16136;DHT22;8173;48.354;9.248;2022-12-29T02:32:19;3.60;99.90
16136;DHT22;8173;48.354;9.248;2022-12-29T02:35:01;3.60;99.90
16136;DHT22;8173;48.354;9.248;2022-12-29T02:37:37;3.50;99.90
16136;DHT22;8173;48.354;9.248;2022-12-29T02:40:15;3.50;99.90
16136;DHT22;8173;48.354;9.248;2022-12-29T02:42:48;3.50;99.90
16136;DHT22;8173;48.354;9.248;2022-12-29T02:45:21;3.40;99.90
16136;DHT22;8173;48.354;9.248;2022-12-29T02:47:54;3.20;99.90
16136;DHT22;8173;48.354;9.248;2022-12-29T02:50:26;3.10;99.90
16136;DHT22;8173;48.354;9.248;2022-12-29T02:52:58;3.10;99.90
16136;DHT22;8173;48.354;9.248;2022-12-29T02:55:26;3.20;99.90
16136;DHT22;8173;48.354;9.248;2022-12-29T02:58:13;3.10;99.90
16136;DHT22;8173;48.354;9.248;2022-12-29T03:00:53;3.10;99.90
16136;DHT22;8173;48.354;9.248;2022-12-29T03:03:28;3.10;99.90
16136;DHT22;8173;48.354;9.248;2022-12-29T03:06:09;3.00;99.90
16136;DHT22;8173;48.354;9.248;2022-12-29T03:08:44;3.00;99.90
16136;DHT22;8173;48.354;9.248;2022-12-29T03:11:15;3.10;99.90
16136;DHT22;8173;48.354;9.248;2022-12-29T03:14:02;3.00;99.90
16136;DHT22;8173;48.354;9.248;2022-12-29T03:16:53;3.00;99.90
16136;DHT22;8173;48.354;9.248;2022-12-29T03:19:27;3.00;99.90
16136;DHT22;8173;48.354;9.248;2022-12-29T03:21:57;3.10;99.90
16136;DHT22;8173;48.354;9.248;2022-12-29T03:24:45;3.10;99.90
16136;DHT22;8173;48.354;9.248;2022-12-29T03:27:15;3.20;99.90
16136;DHT22;8173;48.354;9.248;2022-12-29T03:29:47;3.20;99.90
16136;DHT22;8173;48.354;9.248;2022-12-29T03:32:19;3.30;99.90
16136;DHT22;8173;48.354;9.248;2022-12-29T03:34:49;3.30;99.90
16136;DHT22;8173;48.354;9.248;2022-12-29T03:37:20;3.30;99.90
16136;DHT22;8173;48.354;9.248;2022-12-29T03:39:48;3.20;99.90
16136;DHT22;8173;48.354;9.248;2022-12-29T03:42:17;3.10;99.90
16136;DHT22;8173;48.354;9.248;2022-12-29T03:44:46;2.90;99.90
16136;DHT22;8173;48.354;9.248;2022-12-29T03:47:14;2.80;99.90
16136;DHT22;8173;48.354;9.248;2022-12-29T03:49:42;2.80;99.90
16136;DHT22;8173;48.354;9.248;2022-12-29T03:52:10;2.70;99.90
16136;DHT22;8173;48.354;9.248;2022-12-29T03:54:37;2.70;99.90
16136;DHT22;8173;48.354;9.248;2022-12-29T03:57:04;2.60;99.90
16136;DHT22;8173;48.354;9.248;2022-12-29T03:59:30;2.50;99.90
16136;DHT22;8173;48.354;9.248;2022-12-29T04:01:57;2.50;99.90
16136;DHT22;8173;48.354;9.248;2022-12-29T04:04:24;2.50;99.90
16136;DHT22;8173;48.354;9.248;2022-12-29T04:06:50;2.40;99.90
16136;DHT22;8173;48.354;9.248;2022-12-29T04:09:18;2.30;99.90
16136;DHT22;8173;48.354;9.248;2022-12-29T04:11:45;2.20;99.90
16136;DHT22;8173;48.354;9.248;2022-12-29T04:14:12;2.20;99.90
16136;DHT22;8173;48.354;9.248;2022-12-29T04:16:39;2.30;99.90
16136;DHT22;8173;48.354;9.248;2022-12-29T04:19:06;2.30;99.90
16136;DHT22;8173;48.354;9.248;2022-12-29T04:21:33;2.40;99.90
16136;DHT22;8173;48.354;9.248;2022-12-29T04:23:59;2.40;99.90
16136;DHT22;8173;48.354;9.248;2022-12-29T04:26:28;2.30;99.90
16136;DHT22;8173;48.354;9.248;2022-12-29T04:28:54;2.30;99.90
16136;DHT22;8173;48.354;9.248;2022-12-29T04:31:21;2.20;99.90
16136;DHT22;8173;48.354;9.248;2022-12-29T04:33:48;2.10;99.90
16136;DHT22;8173;48.354;9.248;2022-12-29T04:36:14;2.00;99.90
16136;DHT22;8173;48.354;9.248;2022-12-29T04:38:41;2.10;99.90
16136;DHT22;8173;48.354;9.248;2022-12-29T04:41:08;2.10;99.90
16136;DHT22;8173;48.354;9.248;2022-12-29T04:43:36;2.20;99.90
16136;DHT22;8173;48.354;9.248;2022-12-29T04:46:02;2.20;99.90
16136;DHT22;8173;48.354;9.248;2022-12-29T04:48:29;2.30;99.90
16136;DHT22;8173;48.354;9.248;2022-12-29T04:50:56;2.50;99.90
16136;DHT22;8173;48.354;9.248;2022-12-29T04:53:23;2.80;99.90
16136;DHT22;8173;48.354;9.248;2022-12-29T04:55:50;2.90;99.90
16136;DHT22;8173;48.354;9.248;2022-12-29T04:58:17;2.90;99.90
16136;DHT22;8173;48.354;9.248;2022-12-29T05:00:45;3.00;99.90
16136;DHT22;8173;48.354;9.248;2022-12-29T05:03:12;3.20;99.90
16136;DHT22;8173;48.354;9.248;2022-12-29T05:05:38;3.20;99.90
16136;DHT22;8173;48.354;9.248;2022-12-29T05:08:05;3.30;99.90
16136;DHT22;8173;48.354;9.248;2022-12-29T05:10:32;3.10;99.90
16136;DHT22;8173;48.354;9.248;2022-12-29T05:12:58;3.10;99.90
16136;DHT22;8173;48.354;9.248;2022-12-29T05:15:26;3.10;99.90
16136;DHT22;8173;48.354;9.248;2022-12-29T05:17:54;3.10;99.90
16136;DHT22;8173;48.354;9.248;2022-12-29T05:20:21;3.20;99.90
16136;DHT22;8173;48.354;9.248;2022-12-29T05:22:48;3.20;99.90
16136;DHT22;8173;48.354;9.248;2022-12-29T05:25:14;3.30;99.90
16136;DHT22;8173;48.354;9.248;2022-12-29T05:27:41;3.30;99.90
16136;DHT22;8173;48.354;9.248;2022-12-29T05:30:09;3.30;99.90
16136;DHT22;8173;48.354;9.248;2022-12-29T05:32:36;3.20;99.90
16136;DHT22;8173;48.354;9.248;2022-12-29T05:35:05;3.20;99.90
16136;DHT22;8173;48.354;9.248;2022-12-29T05:37:31;3.20;99.90
16136;DHT22;8173;48.354;9.248;2022-12-29T05:39:58;3.40;99.90
16136;DHT22;8173;48.354;9.248;2022-12-29T05:42:25;3.40;99.90
16136;DHT22;8173;48.354;9.248;2022-12-29T05:44:52;3.30;99.90
16136;DHT22;8173;48.354;9.248;2022-12-29T05:47:19;3.30;99.90
16136;DHT22;8173;48.354;9.248;2022-12-29T05:49:46;3.10;99.90
16136;DHT22;8173;48.354;9.248;2022-12-29T05:52:14;3.10;99.90
16136;DHT22;8173;48.354;9.248;2022-12-29T05:54:40;3.10;99.90
16136;DHT22;8173;48.354;9.248;2022-12-29T05:57:07;3.10;99.90
16136;DHT22;8173;48.354;9.248;2022-12-29T05:59:34;3.10;99.90
16136;DHT22;8173;48.354;9.248;2022-12-29T06:02:01;3.30;99.90
16136;DHT22;8173;48.354;9.248;2022-12-29T06:04:28;3.30;99.90
16136;DHT22;8173;48.354;9.248;2022-12-29T06:06:54;3.30;99.90
16136;DHT22;8173;48.354;9.248;2022-12-29T06:09:22;3.30;99.90
16136;DHT22;8173;48.354;9.248;2022-12-29T06:11:49;3.30;99.90
16136;DHT22;8173;48.354;9.248;2022-12-29T06:14:16;3.40;99.90
16136;DHT22;8173;48.354;9.248;2022-12-29T06:16:42;3.40;99.90
16136;DHT22;8173;48.354;9.248;2022-12-29T06:19:09;3.50;99.90
16136;DHT22;8173;48.354;9.248;2022-12-29T06:21:36;3.50;99.90
16136;DHT22;8173;48.354;9.248;2022-12-29T06:24:04;3.40;99.90
16136;DHT22;8173;48.354;9.248;2022-12-29T06:26:32;3.50;99.90
16136;DHT22;8173;48.354;9.248;2022-12-29T06:28:59;3.50;99.90
16136;DHT22;8173;48.354;9.248;2022-12-29T06:31:25;3.60;99.90
16136;DHT22;8173;48.354;9.248;2022-12-29T06:33:52;3.60;99.90
16136;DHT22;8173;48.354;9.248;2022-12-29T06:36:19;3.70;99.90
16136;DHT22;8173;48.354;9.248;2022-12-29T06:38:45;3.70;99.90
16136;DHT22;8173;48.354;9.248;2022-12-29T06:41:12;3.70;99.90
16136;DHT22;8173;48.354;9.248;2022-12-29T06:43:40;3.50;99.90
16136;DHT22;8173;48.354;9.248;2022-12-29T06:46:07;3.40;99.90
16136;DHT22;8173;48.354;9.248;2022-12-29T06:48:33;3.40;99.90
16136;DHT22;8173;48.354;9.248;2022-12-29T06:51:00;3.40;99.90
16136;DHT22;8173;48.354;9.248;2022-12-29T06:53:27;3.20;99.90
16136;DHT22;8173;48.354;9.248;2022-12-29T06:55:53;3.00;99.90
16136;DHT22;8173;48.354;9.248;2022-12-29T06:58:22;2.90;99.90
16136;DHT22;8173;48.354;9.248;2022-12-29T07:00:50;2.80;99.90
16136;DHT22;8173;48.354;9.248;2022-12-29T07:03:17;2.60;99.90
16136;DHT22;8173;48.354;9.248;2022-12-29T07:05:43;2.50;99.90
16136;DHT22;8173;48.354;9.248;2022-12-29T07:08:10;2.50;99.90
16136;DHT22;8173;48.354;9.248;2022-12-29T07:10:37;2.90;99.90
16136;DHT22;8173;48.354;9.248;2022-12-29T07:13:04;3.30;99.90
16136;DHT22;8173;48.354;9.248;2022-12-29T07:15:32;4.20;99.90
16136;DHT22;8173;48.354;9.248;2022-12-29T07:18:00;4.80;99.90
16136;DHT22;8173;48.354;9.248;2022-12-29T07:20:28;5.20;99.90
16136;DHT22;8173;48.354;9.248;2022-12-29T07:22:55;5.50;99.90
16136;DHT22;8173;48.354;9.248;2022-12-29T07:25:21;5.70;99.90
16136;DHT22;8173;48.354;9.248;2022-12-29T07:27:48;5.80;99.90
16136;DHT22;8173;48.354;9.248;2022-12-29T07:30:15;5.80;99.90
16136;DHT22;8173;48.354;9.248;2022-12-29T07:32:42;5.80;99.90
16136;DHT22;8173;48.354;9.248;2022-12-29T07:35:10;5.70;99.90
16136;DHT22;8173;48.354;9.248;2022-12-29T07:37:37;5.90;99.90
16136;DHT22;8173;48.354;9.248;2022-12-29T07:40:04;5.80;99.90
16136;DHT22;8173;48.354;9.248;2022-12-29T07:42:31;5.80;99.90
16136;DHT22;8173;48.354;9.248;2022-12-29T07:44:58;5.60;99.90
16136;DHT22;8173;48.354;9.248;2022-12-29T07:47:25;5.40;99.90
16136;DHT22;8173;48.354;9.248;2022-12-29T07:49:52;5.30;99.90
16136;DHT22;8173;48.354;9.248;2022-12-29T07:52:20;5.10;99.90
16136;DHT22;8173;48.354;9.248;2022-12-29T07:54:47;5.10;99.90
16136;DHT22;8173;48.354;9.248;2022-12-29T07:57:13;5.00;99.90
16136;DHT22;8173;48.354;9.248;2022-12-29T07:59:40;5.00;99.90
16136;DHT22;8173;48.354;9.248;2022-12-29T08:02:09;5.00;99.90
16136;DHT22;8173;48.354;9.248;2022-12-29T08:04:36;5.00;99.90
16136;DHT22;8173;48.354;9.248;2022-12-29T08:07:03;5.00;99.90
16136;DHT22;8173;48.354;9.248;2022-12-29T08:09:31;5.00;99.90
16136;DHT22;8173;48.354;9.248;2022-12-29T08:11:58;5.20;99.90
16136;DHT22;8173;48.354;9.248;2022-12-29T08:14:24;5.40;99.90
16136;DHT22;8173;48.354;9.248;2022-12-29T08:16:51;5.40;99.90
16136;DHT22;8173;48.354;9.248;2022-12-29T08:19:18;5.60;99.90
16136;DHT22;8173;48.354;9.248;2022-12-29T08:21:44;5.60;99.90
16136;DHT22;8173;48.354;9.248;2022-12-29T08:24:11;5.70;99.90
16136;DHT22;8173;48.354;9.248;2022-12-29T08:26:40;5.80;99.90
16136;DHT22;8173;48.354;9.248;2022-12-29T08:29:06;5.90;99.90
16136;DHT22;8173;48.354;9.248;2022-12-29T08:31:33;5.90;99.90
16136;DHT22;8173;48.354;9.248;2022-12-29T08:34:00;6.00;99.90
16136;DHT22;8173;48.354;9.248;2022-12-29T08:36:29;6.10;99.90
16136;DHT22;8173;48.354;9.248;2022-12-29T08:38:56;6.10;99.90
16136;DHT22;8173;48.354;9.248;2022-12-29T08:41:22;6.10;99.90
16136;DHT22;8173;48.354;9.248;2022-12-29T08:43:50;6.00;99.90
16136;DHT22;8173;48.354;9.248;2022-12-29T08:46:17;6.00;99.90
16136;DHT22;8173;48.354;9.248;2022-12-29T08:48:45;6.10;99.90
16136;DHT22;8173;48.354;9.248;2022-12-29T08:51:13;6.20;99.90
16136;DHT22;8173;48.354;9.248;2022-12-29T08:53:39;6.30;99.90
16136;DHT22;8173;48.354;9.248;2022-12-29T08:56:08;6.30;99.90
16136;DHT22;8173;48.354;9.248;2022-12-29T08:58:35;6.20;99.90
16136;DHT22;8173;48.354;9.248;2022-12-29T09:01:03;6.20;99.90
16136;DHT22;8173;48.354;9.248;2022-12-29T09:03:30;6.20;99.90
16136;DHT22;8173;48.354;9.248;2022-12-29T09:05:57;6.30;99.90
16136;DHT22;8173;48.354;9.248;2022-12-29T09:08:23;6.40;99.90
16136;DHT22;8173;48.354;9.248;2022-12-29T09:10:50;6.40;99.90
16136;DHT22;8173;48.354;9.248;2022-12-29T09:13:17;6.40;99.90
16136;DHT22;8173;48.354;9.248;2022-12-29T09:15:43;6.50;99.90
16136;DHT22;8173;48.354;9.248;2022-12-29T09:18:12;6.50;99.90
16136;DHT22;8173;48.354;9.248;2022-12-29T09:20:38;6.60;99.90
16136;DHT22;8173;48.354;9.248;2022-12-29T09:23:05;6.60;99.90
16136;DHT22;8173;48.354;9.248;2022-12-29T09:25:32;6.70;99.90
16136;DHT22;8173;48.354;9.248;2022-12-29T09:27:59;6.80;99.90
16136;DHT22;8173;48.354;9.248;2022-12-29T09:30:29;6.90;99.90
16136;DHT22;8173;48.354;9.248;2022-12-29T09:32:56;7.20;99.90
16136;DHT22;8173;48.354;9.248;2022-12-29T09:35:24;7.20;99.90
16136;DHT22;8173;48.354;9.248;2022-12-29T09:37:50;7.20;99.90
16136;DHT22;8173;48.354;9.248;2022-12-29T09:40:24;7.10;99.90
16136;DHT22;8173;48.354;9.248;2022-12-29T09:43:11;7.00;99.90
16136;DHT22;8173;48.354;9.248;2022-12-29T09:45:45;7.00;99.90
16136;DHT22;8173;48.354;9.248;2022-12-29T09:48:17;7.80;99.90
16136;DHT22;8173;48.354;9.248;2022-12-29T09:50:49;7.00;99.90
16136;DHT22;8173;48.354;9.248;2022-12-29T09:53:22;7.00;99.90
16136;DHT22;8173;48.354;9.248;2022-12-29T09:55:53;7.10;99.90
16136;DHT22;8173;48.354;9.248;2022-12-29T09:58:24;7.20;99.90
16136;DHT22;8173;48.354;9.248;2022-12-29T10:00:58;7.30;99.90
16136;DHT22;8173;48.354;9.248;2022-12-29T10:03:36;7.30;99.90
16136;DHT22;8173;48.354;9.248;2022-12-29T10:06:11;7.30;99.90
16136;DHT22;8173;48.354;9.248;2022-12-29T10:08:41;7.40;99.90
16136;DHT22;8173;48.354;9.248;2022-12-29T10:11:20;7.40;99.90
16136;DHT22;8173;48.354;9.248;2022-12-29T10:14:02;7.50;99.90
16136;DHT22;8173;48.354;9.248;2022-12-29T10:16:39;7.40;99.90
16136;DHT22;8173;48.354;9.248;2022-12-29T10:19:24;7.40;99.90
16136;DHT22;8173;48.354;9.248;2022-12-29T10:22:03;7.40;99.90
16136;DHT22;8173;48.354;9.248;2022-12-29T10:24:32;7.50;99.90
16136;DHT22;8173;48.354;9.248;2022-12-29T10:27:01;7.40;99.90
16136;DHT22;8173;48.354;9.248;2022-12-29T10:29:32;7.60;99.90
16136;DHT22;8173;48.354;9.248;2022-12-29T10:32:01;7.60;99.90
16136;DHT22;8173;48.354;9.248;2022-12-29T10:34:33;7.60;99.90
16136;DHT22;8173;48.354;9.248;2022-12-29T10:37:04;7.60;99.90
16136;DHT22;8173;48.354;9.248;2022-12-29T10:39:36;7.70;99.90
16136;DHT22;8173;48.354;9.248;2022-12-29T10:42:09;7.60;99.90
16136;DHT22;8173;48.354;9.248;2022-12-29T10:44:37;7.70;99.90
16136;DHT22;8173;48.354;9.248;2022-12-29T10:47:07;7.70;99.90
16136;DHT22;8173;48.354;9.248;2022-12-29T10:49:40;7.70;99.90
16136;DHT22;8173;48.354;9.248;2022-12-29T10:52:10;7.80;99.90
16136;DHT22;8173;48.354;9.248;2022-12-29T10:54:44;7.80;99.90
16136;DHT22;8173;48.354;9.248;2022-12-29T10:57:21;7.90;99.90
16136;DHT22;8173;48.354;9.248;2022-12-29T10:59:50;7.90;99.90
16136;DHT22;8173;48.354;9.248;2022-12-29T11:02:35;7.90;99.90
16136;DHT22;8173;48.354;9.248;2022-12-29T11:05:09;8.00;99.90
16136;DHT22;8173;48.354;9.248;2022-12-29T11:07:39;8.00;99.90
16136;DHT22;8173;48.354;9.248;2022-12-29T11:10:20;8.00;99.90
16136;DHT22;8173;48.354;9.248;2022-12-29T11:12:57;8.00;99.90
16136;DHT22;8173;48.354;9.248;2022-12-29T11:15:24;8.00;99.90
16136;DHT22;8173;48.354;9.248;2022-12-29T11:17:52;8.00;99.90
16136;DHT22;8173;48.354;9.248;2022-12-29T11:20:33;8.10;99.90
16136;DHT22;8173;48.354;9.248;2022-12-29T11:23:03;8.00;99.90
16136;DHT22;8173;48.354;9.248;2022-12-29T11:25:30;8.00;99.90
16136;DHT22;8173;48.354;9.248;2022-12-29T11:27:59;8.00;99.90
16136;DHT22;8173;48.354;9.248;2022-12-29T11:30:29;8.10;99.90
16136;DHT22;8173;48.354;9.248;2022-12-29T11:32:57;8.20;99.90
16136;DHT22;8173;48.354;9.248;2022-12-29T11:35:33;8.20;99.90
16136;DHT22;8173;48.354;9.248;2022-12-29T11:38:02;8.20;99.90
16136;DHT22;8173;48.354;9.248;2022-12-29T11:40:30;8.20;99.90
16136;DHT22;8173;48.354;9.248;2022-12-29T11:43:00;8.20;99.90
16136;DHT22;8173;48.354;9.248;2022-12-29T11:45:31;8.20;99.90
16136;DHT22;8173;48.354;9.248;2022-12-29T11:48:01;8.20;99.90
16136;DHT22;8173;48.354;9.248;2022-12-29T11:50:34;8.30;99.90
16136;DHT22;8173;48.354;9.248;2022-12-29T11:53:05;8.40;99.90
16136;DHT22;8173;48.354;9.248;2022-12-29T11:55:40;8.40;99.90
16136;DHT22;8173;48.354;9.248;2022-12-29T11:58:14;8.50;99.90
16136;DHT22;8173;48.354;9.248;2022-12-29T12:00:42;8.50;99.90
16136;DHT22;8173;48.354;9.248;2022-12-29T12:03:14;8.40;99.90
16136;DHT22;8173;48.354;9.248;2022-12-29T12:05:46;8.40;99.90
16136;DHT22;8173;48.354;9.248;2022-12-29T12:08:23;8.30;99.90
16136;DHT22;8173;48.354;9.248;2022-12-29T12:10:58;8.30;99.90
16136;DHT22;8173;48.354;9.248;2022-12-29T12:13:31;8.30;99.90
16136;DHT22;8173;48.354;9.248;2022-12-29T12:16:05;8.20;99.90
16136;DHT22;8173;48.354;9.248;2022-12-29T12:18:39;8.20;99.90
16136;DHT22;8173;48.354;9.248;2022-12-29T12:21:12;8.10;99.90
16136;DHT22;8173;48.354;9.248;2022-12-29T12:23:58;8.10;99.90
16136;DHT22;8173;48.354;9.248;2022-12-29T12:26:31;8.20;99.90
16136;DHT22;8173;48.354;9.248;2022-12-29T12:29:04;8.40;99.90
16136;DHT22;8173;48.354;9.248;2022-12-29T12:31:41;8.50;99.90
16136;DHT22;8173;48.354;9.248;2022-12-29T12:34:15;8.70;99.90
16136;DHT22;8173;48.354;9.248;2022-12-29T12:39:49;8.80;99.90
16136;DHT22;8173;48.354;9.248;2022-12-29T12:42:37;8.70;99.90
16136;DHT22;8173;48.354;9.248;2022-12-29T12:45:26;8.60;99.90
16136;DHT22;8173;48.354;9.248;2022-12-29T12:48:03;8.50;99.90
16136;DHT22;8173;48.354;9.248;2022-12-29T12:50:40;8.50;99.90
16136;DHT22;8173;48.354;9.248;2022-12-29T12:53:21;8.50;99.90
16136;DHT22;8173;48.354;9.248;2022-12-29T12:55:59;8.50;99.90
16136;DHT22;8173;48.354;9.248;2022-12-29T12:58:35;8.50;99.90
16136;DHT22;8173;48.354;9.248;2022-12-29T13:01:18;8.50;99.90
16136;DHT22;8173;48.354;9.248;2022-12-29T13:04:03;8.50;99.90
16136;DHT22;8173;48.354;9.248;2022-12-29T13:06:39;8.50;99.90
16136;DHT22;8173;48.354;9.248;2022-12-29T13:09:28;8.40;99.90
16136;DHT22;8173;48.354;9.248;2022-12-29T13:12:08;8.40;99.90
16136;DHT22;8173;48.354;9.248;2022-12-29T13:14:51;8.40;99.90
16136;DHT22;8173;48.354;9.248;2022-12-29T13:17:25;8.40;99.90
16136;DHT22;8173;48.354;9.248;2022-12-29T13:19:59;8.40;99.90
16136;DHT22;8173;48.354;9.248;2022-12-29T13:22:33;8.40;99.90
16136;DHT22;8173;48.354;9.248;2022-12-29T13:25:24;8.50;99.90
16136;DHT22;8173;48.354;9.248;2022-12-29T13:27:59;8.50;99.90
16136;DHT22;8173;48.354;9.248;2022-12-29T13:30:30;8.60;99.90
16136;DHT22;8173;48.354;9.248;2022-12-29T13:33:05;8.60;99.90
16136;DHT22;8173;48.354;9.248;2022-12-29T13:35:52;8.70;99.90
16136;DHT22;8173;48.354;9.248;2022-12-29T13:38:24;8.70;99.90
16136;DHT22;8173;48.354;9.248;2022-12-29T13:40:55;8.70;99.90
16136;DHT22;8173;48.354;9.248;2022-12-29T13:43:23;8.70;99.90
16136;DHT22;8173;48.354;9.248;2022-12-29T13:45:57;8.80;99.90
16136;DHT22;8173;48.354;9.248;2022-12-29T13:48:32;8.60;99.90
16136;DHT22;8173;48.354;9.248;2022-12-29T13:51:01;8.50;99.90
16136;DHT22;8173;48.354;9.248;2022-12-29T13:53:35;8.40;99.90
16136;DHT22;8173;48.354;9.248;2022-12-29T13:56:09;8.30;99.90
16136;DHT22;8173;48.354;9.248;2022-12-29T13:58:44;8.20;99.90
16136;DHT22;8173;48.354;9.248;2022-12-29T14:01:17;8.10;99.90
16136;DHT22;8173;48.354;9.248;2022-12-29T14:03:49;8.10;99.90
16136;DHT22;8173;48.354;9.248;2022-12-29T14:06:22;8.20;99.90
16136;DHT22;8173;48.354;9.248;2022-12-29T14:08:51;8.10;99.90
16136;DHT22;8173;48.354;9.248;2022-12-29T14:11:21;8.00;99.90
16136;DHT22;8173;48.354;9.248;2022-12-29T14:13:52;8.90;99.90
16136;DHT22;8173;48.354;9.248;2022-12-29T14:16:27;8.10;99.90
16136;DHT22;8173;48.354;9.248;2022-12-29T14:18:55;8.20;99.90
16136;DHT22;8173;48.354;9.248;2022-12-29T14:21:29;8.20;99.90
16136;DHT22;8173;48.354;9.248;2022-12-29T14:24:28;8.20;99.90
16136;DHT22;8173;48.354;9.248;2022-12-29T14:33:12;8.00;99.90
16136;DHT22;8173;48.354;9.248;2022-12-29T14:35:42;8.10;99.90
16136;DHT22;8173;48.354;9.248;2022-12-29T14:38:21;8.00;99.90
16136;DHT22;8173;48.354;9.248;2022-12-29T14:40:49;8.00;99.90
16136;DHT22;8173;48.354;9.248;2022-12-29T14:43:21;7.90;99.90
16136;DHT22;8173;48.354;9.248;2022-12-29T14:45:55;7.90;99.90
16136;DHT22;8173;48.354;9.248;2022-12-29T14:48:31;7.90;99.90
16136;DHT22;8173;48.354;9.248;2022-12-29T14:50:58;7.80;99.90
16136;DHT22;8173;48.354;9.248;2022-12-29T14:53:43;7.70;99.90
16136;DHT22;8173;48.354;9.248;2022-12-29T14:56:11;7.70;99.90
16136;DHT22;8173;48.354;9.248;2022-12-29T14:58:47;7.60;99.90
16136;DHT22;8173;48.354;9.248;2022-12-29T15:01:30;7.60;99.90
16136;DHT22;8173;48.354;9.248;2022-12-29T15:04:05;7.60;99.90
16136;DHT22;8173;48.354;9.248;2022-12-29T15:06:36;7.60;99.90
16136;DHT22;8173;48.354;9.248;2022-12-29T15:09:12;7.60;99.90
16136;DHT22;8173;48.354;9.248;2022-12-29T15:11:47;7.70;99.90
16136;DHT22;8173;48.354;9.248;2022-12-29T15:14:30;7.70;99.90
16136;DHT22;8173;48.354;9.248;2022-12-29T15:16:58;7.70;99.90
16136;DHT22;8173;48.354;9.248;2022-12-29T15:19:26;7.70;99.90
16136;DHT22;8173;48.354;9.248;2022-12-29T15:21:54;7.70;99.90
16136;DHT22;8173;48.354;9.248;2022-12-29T15:24:21;7.70;99.90
16136;DHT22;8173;48.354;9.248;2022-12-29T15:26:50;7.80;99.90
16136;DHT22;8173;48.354;9.248;2022-12-29T15:29:32;8.50;99.90
16136;DHT22;8173;48.354;9.248;2022-12-29T15:32:01;7.80;99.90
16136;DHT22;8173;48.354;9.248;2022-12-29T15:34:36;7.70;99.90
16136;DHT22;8173;48.354;9.248;2022-12-29T15:37:06;7.60;99.90
16136;DHT22;8173;48.354;9.248;2022-12-29T15:39:33;7.60;99.90
16136;DHT22;8173;48.354;9.248;2022-12-29T15:42:03;7.60;99.90
16136;DHT22;8173;48.354;9.248;2022-12-29T15:44:35;7.50;99.90
16136;DHT22;8173;48.354;9.248;2022-12-29T15:47:06;7.50;99.90
16136;DHT22;8173;48.354;9.248;2022-12-29T15:49:37;7.40;99.90
16136;DHT22;8173;48.354;9.248;2022-12-29T15:52:06;7.40;99.90
16136;DHT22;8173;48.354;9.248;2022-12-29T15:54:34;7.40;99.90
16136;DHT22;8173;48.354;9.248;2022-12-29T15:57:01;7.30;99.90
16136;DHT22;8173;48.354;9.248;2022-12-29T15:59:29;7.30;99.90
16136;DHT22;8173;48.354;9.248;2022-12-29T16:01:57;7.40;99.90
16136;DHT22;8173;48.354;9.248;2022-12-29T16:04:29;7.30;99.90
16136;DHT22;8173;48.354;9.248;2022-12-29T16:06:58;7.40;99.90
16136;DHT22;8173;48.354;9.248;2022-12-29T16:09:32;7.40;99.90
16136;DHT22;8173;48.354;9.248;2022-12-29T16:12:03;7.50;99.90
16136;DHT22;8173;48.354;9.248;2022-12-29T16:14:34;7.40;99.90
16136;DHT22;8173;48.354;9.248;2022-12-29T16:17:04;7.40;99.90
16136;DHT22;8173;48.354;9.248;2022-12-29T16:19:34;7.20;99.90
16136;DHT22;8173;48.354;9.248;2022-12-29T16:22:04;7.10;99.90
16136;DHT22;8173;48.354;9.248;2022-12-29T16:24:38;6.90;99.90
16136;DHT22;8173;48.354;9.248;2022-12-29T16:27:07;6.80;99.90
16136;DHT22;8173;48.354;9.248;2022-12-29T16:29:36;6.80;99.90
16136;DHT22;8173;48.354;9.248;2022-12-29T16:32:24;6.70;99.90
16136;DHT22;8173;48.354;9.248;2022-12-29T16:35:10;6.50;99.90
16136;DHT22;8173;48.354;9.248;2022-12-29T16:37:37;6.40;99.90